^^
Datos históricos de la estación: Murcia-Puente Tocinos
Diario Informe para Agosto 13, 2019 Unidades:  Métrico    Ingés   Ambas
Diario Semanal Mensual Anual
  Máxima: Mínima: Promedio:
Temperatura: 24.7 °C 19.1 °C 21.7 °C
Punto de rocio: 17.1 °C 12.8 °C 15 °C
Humedad: 87.2% 48.9% 67%
Velocidad viento: 22.1km/h 0km/h 11.8km/h
Racha viento: 40.7km/h - -
Viento- - ENE
Presión: 1012.1 hPa 1007.3 hPa -
Precipitación: 0.0 mm    
 
 
Tabla de datos para Agosto 13, 2019
Hora Temperatura Punto de rocio Presión Viento Velocidad viento Racha viento Humedad Intensidad lluvia(por hora) Nubes
00:04 19.6 °C 16.1 °C 1012.1 hPa NNE 8.4 km/h 13.7 km/h 80% 0.0 mm
00:09 19.6 °C 16.1 °C 1012.1 hPa NNE 8.1 km/h 14.8 km/h 80% 0.0 mm
00:14 19.6 °C 16.1 °C 1012.1 hPa NNE 7.6 km/h 16.7 km/h 80% 0.0 mm
00:19 19.7 °C 16.1 °C 1012.1 hPa NNE 8.2 km/h 16.1 km/h 80% 0.0 mm
00:24 19.7 °C 16.2 °C 1012.1 hPa NNE 9.5 km/h 20.4 km/h 80% 0.0 mm
00:29 19.7 °C 16.2 °C 1012.1 hPa NNE 10.3 km/h 20.9 km/h 80% 0.0 mm
00:34 19.7 °C 16.2 °C 1012.1 hPa NNE 11.9 km/h 20.9 km/h 80% 0.0 mm
00:39 19.7 °C 16.2 °C 1012.0 hPa NE 12 km/h 20.9 km/h 80.1% 0.0 mm
00:44 19.7 °C 16.2 °C 1012.0 hPa NE 12.2 km/h 19.3 km/h 80.3% 0.0 mm
00:49 19.7 °C 16.3 °C 1012.0 hPa NE 11.9 km/h 18.5 km/h 80.8% 0.0 mm
00:54 19.7 °C 16.3 °C 1011.9 hPa NE 11.1 km/h 19.3 km/h 81% 0.0 mm
00:59 19.6 °C 16.2 °C 1011.9 hPa NE 10.8 km/h 18 km/h 81% 0.0 mm
01:04 19.6 °C 16.2 °C 1011.9 hPa NNE 10.3 km/h 17.7 km/h 81% 0.0 mm
01:09 19.5 °C 16.2 °C 1011.9 hPa NE 9.8 km/h 16.7 km/h 81.3% 0.0 mm
01:14 19.5 °C 16.3 °C 1011.9 hPa NE 8.7 km/h 16.1 km/h 82% 0.0 mm
01:19 19.4 °C 16.2 °C 1011.9 hPa NE 9 km/h 14.8 km/h 82% 0.0 mm
01:24 19.4 °C 16.2 °C 1011.9 hPa NE 9.5 km/h 14.5 km/h 82% 0.0 mm
01:29 19.4 °C 16.2 °C 1011.9 hPa NE 9.2 km/h 13 km/h 82% 0.0 mm
01:34 19.4 °C 16.3 °C 1011.9 hPa NE 8.7 km/h 13.7 km/h 82.1% 0.0 mm
01:39 19.4 °C 16.4 °C 1011.8 hPa NE 8.7 km/h 19 km/h 82.9% 0.0 mm
01:44 19.4 °C 16.4 °C 1011.8 hPa NE 8.7 km/h 19.3 km/h 83% 0.0 mm
01:49 19.4 °C 16.4 °C 1011.8 hPa NE 8.7 km/h 16.1 km/h 83% 0.0 mm
01:54 19.4 °C 16.5 °C 1011.7 hPa NE 8.7 km/h 14.5 km/h 83% 0.0 mm
01:59 19.5 °C 16.5 °C 1011.7 hPa NNE 8.1 km/h 17.2 km/h 83% 0.0 mm
02:04 19.5 °C 16.6 °C 1011.7 hPa NNE 6.9 km/h 18 km/h 83% 0.0 mm
02:09 19.6 °C 16.6 °C 1011.5 hPa NE 8 km/h 22.5 km/h 83% 0.0 mm
02:14 19.6 °C 16.6 °C 1011.5 hPa NE 10.3 km/h 22.5 km/h 83% 0.0 mm
02:19 19.5 °C 16.6 °C 1011.5 hPa NE 10.8 km/h 22.5 km/h 83% 0.0 mm
02:24 19.5 °C 16.6 °C 1011.3 hPa NE 11.9 km/h 19.3 km/h 83% 0.0 mm
02:29 19.5 °C 16.5 °C 1011.3 hPa NE 11.1 km/h 16.1 km/h 83% 0.0 mm
02:34 19.4 °C 16.6 °C 1011.3 hPa NE 9.5 km/h 16.7 km/h 83.9% 0.0 mm
02:39 19.4 °C 16.6 °C 1011.2 hPa NE 9.2 km/h 14.5 km/h 84% 0.0 mm
02:44 19.4 °C 16.6 °C 1011.2 hPa NNE 8.7 km/h 16.7 km/h 84% 0.0 mm
02:49 19.4 °C 16.6 °C 1011.2 hPa NE 8.7 km/h 16.1 km/h 84% 0.0 mm
02:54 19.4 °C 16.6 °C 1010.8 hPa NNE 8.7 km/h 13 km/h 84% 0.0 mm
02:59 19.4 °C 16.6 °C 1010.8 hPa NNE 7.9 km/h 13 km/h 84% 0.0 mm
03:04 19.3 °C 16.5 °C 1010.8 hPa NNE 6.5 km/h 11.3 km/h 84% 0.0 mm
03:09 19.4 °C 16.6 °C 1010.7 hPa NNE 6 km/h 9.7 km/h 84% 0.0 mm
03:14 19.4 °C 16.6 °C 1010.7 hPa NNE 5 km/h 9.7 km/h 84% 0.0 mm
03:19 19.4 °C 16.6 °C 1010.7 hPa NE 5 km/h 9.7 km/h 84% 0.0 mm
03:24 19.4 °C 16.6 °C 1010.6 hPa North 5 km/h 8 km/h 84% 0.0 mm
03:29 19.4 °C 16.5 °C 1010.6 hPa NNO 4.1 km/h 5.6 km/h 83.4% 0.0 mm
03:34 19.4 °C 16.5 °C 1010.6 hPa NNE 2.2 km/h 7.4 km/h 83% 0.0 mm
03:39 19.5 °C 16.6 °C 1010.5 hPa ENE 1.5 km/h 8 km/h 83% 0.0 mm
03:44 19.6 °C 16.6 °C 1010.5 hPa Calm   11.9 km/h 83% 0.0 mm
03:49 19.6 °C 16.6 °C 1010.7 hPa SE 1.2 km/h 11.3 km/h 83% 0.0 mm
03:54 19.6 °C 16.6 °C 1010.7 hPa SSE 3.9 km/h 8 km/h 83% 0.0 mm
03:59 19.6 °C 16.6 °C 1010.7 hPa SSO 3.5 km/h 8 km/h 83% 0.0 mm
04:04 19.7 °C 16.7 °C 1010.7 hPa OSO 2.9 km/h 3.2 km/h 83% 0.0 mm
04:09 19.7 °C 16.7 °C 1010.4 hPa Oeste 2 km/h 7.4 km/h 83% 0.0 mm
04:14 19.7 °C 16.7 °C 1010.4 hPa Calm   8 km/h 83% 0.0 mm
04:19 19.7 °C 16.5 °C 1010.4 hPa Oeste 1.5 km/h 8 km/h 82.1% 0.0 mm
04:24 19.7 °C 16.4 °C 1010.3 hPa ONO 4.7 km/h 8.4 km/h 81.5% 0.0 mm
04:29 19.7 °C 16.3 °C 1010.3 hPa NO 4.8 km/h 9.3 km/h 81% 0.0 mm
04:34 19.7 °C 16.3 °C 1010.3 hPa NO 5 km/h 9.7 km/h 81% 0.0 mm
04:39 19.7 °C 16.3 °C 1009.8 hPa NO 5.3 km/h 9.7 km/h 81% 0.0 mm
04:44 19.7 °C 16.3 °C 1009.8 hPa NO 5.8 km/h 9.7 km/h 81% 0.0 mm
04:49 19.7 °C 16.3 °C 1010.1 hPa NO 5.4 km/h 8.4 km/h 81% 0.0 mm
04:54 19.7 °C 16.2 °C 1010.1 hPa NNO 4.7 km/h 9.3 km/h 80.5% 0.0 mm
04:59 19.7 °C 16.3 °C 1010.1 hPa NO 4.7 km/h 9.7 km/h 81% 0.0 mm
05:04 19.7 °C 16.3 °C 1010.1 hPa North 4.7 km/h 8.7 km/h 81% 0.0 mm
05:09 19.7 °C 16.4 °C 1009.8 hPa NO 4.7 km/h 9.7 km/h 81% 0.0 mm
05:14 19.8 °C 16.4 °C 1009.8 hPa North 4.7 km/h 8 km/h 80.6% 0.0 mm
05:19 19.8 °C 16.3 °C 1009.8 hPa NE 4.2 km/h 8 km/h 80.1% 0.0 mm
05:24 19.8 °C 16.4 °C 1009.8 hPa NE 3.2 km/h 8.4 km/h 80.7% 0.0 mm
05:29 19.8 °C 16.4 °C 1009.8 hPa NE 3.2 km/h 8 km/h 81% 0.0 mm
05:34 19.8 °C 16.4 °C 1010.0 hPa NE 3.2 km/h 8 km/h 81% 0.0 mm
05:39 19.8 °C 16.4 °C 1010.0 hPa NE 3.2 km/h 8.4 km/h 81% 0.0 mm
05:44 19.8 °C 16.4 °C 1010.0 hPa NE 3.2 km/h 8.7 km/h 81% 0.0 mm
05:49 19.8 °C 16.4 °C 1010.3 hPa NE 3.7 km/h 9.7 km/h 81% 0.0 mm
05:54 19.8 °C 16.4 °C 1010.3 hPa NNE 4.7 km/h 8 km/h 81% 0.0 mm
05:59 19.8 °C 16.4 °C 1010.3 hPa NNE 4.1 km/h 8 km/h 81% 0.0 mm
06:04 19.8 °C 16.6 °C 1010.4 hPa NE 3.2 km/h 11.1 km/h 82% 0.0 mm
06:09 19.8 °C 16.8 °C 1010.4 hPa NE 4.1 km/h 11.3 km/h 83% 0.0 mm
06:14 19.8 °C 16.8 °C 1010.4 hPa NE 5.8 km/h 11.3 km/h 83% 0.0 mm
06:19 19.8 °C 16.9 °C 1010.4 hPa NE 6 km/h 13 km/h 83.7% 0.0 mm
06:24 19.7 °C 17 °C 1010.3 hPa NE 6.5 km/h 13 km/h 84.2% 0.0 mm
06:29 19.6 °C 17 °C 1010.3 hPa NNE 7.2 km/h 14.8 km/h 85% 0.0 mm
06:34 19.6 °C 17.1 °C 1010.3 hPa NE 8.7 km/h 14.8 km/h 85.4% 0.0 mm
06:39 19.5 °C 17.1 °C 1010.2 hPa NE 8.7 km/h 18.5 km/h 86% 0.0 mm
06:44 19.4 °C 17 °C 1010.2 hPa NE 8.7 km/h 19.3 km/h 86% 0.0 mm
06:49 19.4 °C 17.1 °C 1010.4 hPa NE 8.6 km/h 13 km/h 86.8% 0.0 mm
06:54 19.3 °C 17.1 °C 1010.4 hPa NE 8.4 km/h 14.8 km/h 87% 0.0 mm
06:59 19.3 °C 17.1 °C 1010.4 hPa NE 8.5 km/h 14.8 km/h 87% 0.0 mm
07:04 19.3 °C 17 °C 1010.4 hPa NE 8.7 km/h 14.8 km/h 87% 0.0 mm
07:09 19.2 °C 17 °C 1010.4 hPa NE 9 km/h 18.5 km/h 87.2% 0.0 mm
07:14 19.2 °C 17 °C 1010.4 hPa NE 9.5 km/h 19.3 km/h 87% 0.0 mm
07:19 19.2 °C 17 °C 1010.4 hPa NE 9.7 km/h 16.7 km/h 87% 0.0 mm
07:24 19.2 °C 17 °C 1010.4 hPa NE 10 km/h 16.7 km/h 87% 0.0 mm
07:29 19.1 °C 16.9 °C 1010.4 hPa NE 10.1 km/h 16.7 km/h 87% 0.0 mm
07:34 19.2 °C 16.9 °C 1010.5 hPa ENE 10.3 km/h 16.7 km/h 87% 0.0 mm
07:39 19.2 °C 17 °C 1010.5 hPa NE 9.8 km/h 19 km/h 87% 0.0 mm
07:44 19.2 °C 17 °C 1010.5 hPa NE 8.7 km/h 19.3 km/h 87% 0.0 mm
07:49 19.2 °C 17 °C 1010.7 hPa NE 9.1 km/h 19.3 km/h 87% 0.0 mm
07:54 19.2 °C 17 °C 1010.7 hPa NE 10 km/h 19.3 km/h 87% 0.0 mm
07:59 19.3 °C 17 °C 1010.7 hPa NE 10 km/h 20.4 km/h 87% 0.0 mm
08:04 19.3 °C 16.9 °C 1010.7 hPa NE 10 km/h 20.9 km/h 86.2% 0.0 mm
08:09 19.4 °C 17 °C 1010.7 hPa NE 10.6 km/h 20.9 km/h 86% 0.0 mm
08:14 19.5 °C 17.1 °C 1010.7 hPa NNE 11.9 km/h 20.9 km/h 86% 0.0 mm
08:19 19.6 °C 17 °C 1010.8 hPa NE 11.4 km/h 22.2 km/h 85.1% 0.0 mm
08:24 19.6 °C 17 °C 1010.8 hPa NE 10.3 km/h 22.5 km/h 85% 0.0 mm
08:29 19.6 °C 17 °C 1010.8 hPa NE 10.9 km/h 24.5 km/h 84.8% 0.0 mm
08:34 19.7 °C 16.9 °C 1010.8 hPa NE 12.2 km/h 24.1 km/h 83.9% 0.0 mm
08:39 19.7 °C 16.7 °C 1010.7 hPa NE 12.8 km/h 22.5 km/h 83% 0.0 mm
08:44 19.8 °C 16.7 °C 1010.7 hPa NE 14 km/h 25.9 km/h 82.6% 0.0 mm
08:49 19.8 °C 16.6 °C 1011.2 hPa NE 13.9 km/h 27.8 km/h 82% 0.0 mm
08:54 19.8 °C 16.6 °C 1011.2 hPa NE 13.7 km/h 27.4 km/h 82% 0.0 mm
08:59 19.9 °C 16.6 °C 1011.2 hPa NE 13.4 km/h 25.9 km/h 81.2% 0.0 mm
09:04 20 °C 16.4 °C 1011.2 hPa NNE 13 km/h 25.7 km/h 79.8% 0.0 mm
09:09 20.1 °C 16.3 °C 1011.2 hPa NE 14.1 km/h 27 km/h 79% 0.0 mm
09:14 20.1 °C 16.2 °C 1011.2 hPa NE 16.4 km/h 31.7 km/h 78.3% 0.0 mm
09:19 20.2 °C 16.1 °C 1011.2 hPa NE 17.2 km/h 32.2 km/h 77.3% 0.0 mm
09:24 20.4 °C 16.1 °C 1010.7 hPa NE 19 km/h 25.9 km/h 76.4% 0.0 mm
09:29 20.4 °C 16 °C 1010.7 hPa NE 18.1 km/h 28.2 km/h 75.9% 0.0 mm
09:34 20.4 °C 15.9 °C 1011.2 hPa NE 16.1 km/h 27.8 km/h 75.6% 0.0 mm
09:39 20.4 °C 16 °C 1011.2 hPa NE 15.1 km/h 20.9 km/h 75.9% 0.0 mm
09:44 20.5 °C 16 °C 1011.2 hPa NNE 13 km/h 20.9 km/h 75.5% 0.0 mm
09:49 20.7 °C 15.8 °C 1011.5 hPa NNE 11.7 km/h 19.8 km/h 73.8% 0.0 mm
09:54 20.8 °C 15.5 °C 1011.5 hPa NNE 8.7 km/h 24.1 km/h 71.9% 0.0 mm
09:59 20.8 °C 15.4 °C 1011.5 hPa NE 10.5 km/h 24.1 km/h 71.3% 0.0 mm
10:04 20.8 °C 15.3 °C 1011.5 hPa NE 13.7 km/h 24.1 km/h 71% 0.0 mm
10:09 20.9 °C 15.4 °C 1011.0 hPa NE 13.5 km/h 23.3 km/h 70.8% 0.0 mm
10:14 21 °C 15.3 °C 1011.0 hPa NE 13 km/h 25.9 km/h 70% 0.0 mm
10:19 21 °C 15.3 °C 1011.2 hPa NE 13.2 km/h 25.9 km/h 70% 0.0 mm
10:24 21.2 °C 15.3 °C 1011.2 hPa NE 13.7 km/h 28.2 km/h 69.2% 0.0 mm
10:29 21.2 °C 15.2 °C 1011.2 hPa NE 14.3 km/h 27.4 km/h 69% 0.0 mm
10:34 21.2 °C 15.3 °C 1011.2 hPa NE 15.6 km/h 24.5 km/h 69.3% 0.0 mm
10:39 21.2 °C 15.5 °C 1010.9 hPa NE 15.7 km/h 24.1 km/h 69.9% 0.0 mm
10:44 21.3 °C 15.3 °C 1010.9 hPa NE 16.1 km/h 24.5 km/h 68.5% 0.0 mm
10:49 21.4 °C 15 °C 1010.9 hPa NE 15.7 km/h 24.5 km/h 67.2% 0.0 mm
10:54 21.5 °C 15 °C 1010.6 hPa NE 14.8 km/h 27.4 km/h 66.7% 0.0 mm
10:59 21.6 °C 14.7 °C 1010.6 hPa NE 15.7 km/h 28.2 km/h 64.7% 0.0 mm
11:04 21.8 °C 15 °C 1010.6 hPa NE 17.2 km/h 27.4 km/h 65.4% 0.0 mm
11:09 21.9 °C 15.1 °C 1010.5 hPa NE 16.1 km/h 22.5 km/h 65.3% 0.0 mm
11:14 22.1 °C 15.2 °C 1010.5 hPa NE 13.7 km/h 25.9 km/h 65% 0.0 mm
11:19 22.1 °C 15.1 °C 1010.5 hPa NE 13.7 km/h 25.7 km/h 64.6% 0.0 mm
11:24 22.3 °C 14.6 °C 1010.4 hPa NE 13.7 km/h 24.1 km/h 62% 0.0 mm
11:29 22.4 °C 14.3 °C 1010.4 hPa NE 14.4 km/h 28.2 km/h 60.2% 0.0 mm
11:34 22.6 °C 14.4 °C 1010.4 hPa NE 16.1 km/h 27.8 km/h 59.9% 0.0 mm
11:39 22.8 °C 14.3 °C 1010.3 hPa NE 16.2 km/h 30.6 km/h 58.6% 0.0 mm
11:44 22.8 °C 14 °C 1010.3 hPa NE 16.4 km/h 30.6 km/h 57.7% 0.0 mm
11:49 22.9 °C 14 °C 1010.3 hPa NE 16.3 km/h 27.8 km/h 57.3% 0.0 mm
11:54 22.9 °C 14 °C 1010.1 hPa NNE 16.1 km/h 27.4 km/h 57.4% 0.0 mm
11:59 23 °C 13.9 °C 1010.1 hPa NE 16.5 km/h 27.8 km/h 56.3% 0.0 mm
12:04 23.3 °C 13.5 °C 1010.1 hPa NE 17.2 km/h 31.7 km/h 54.1% 0.0 mm
12:09 23.3 °C 13.5 °C 1010.0 hPa NE 17.6 km/h 32.2 km/h 54.2% 0.0 mm
12:14 23.3 °C 13.5 °C 1010.0 hPa NE 18.4 km/h 31.5 km/h 54.1% 0.0 mm
12:19 23.4 °C 13.3 °C 1010.0 hPa NE 18.4 km/h 32.2 km/h 53% 0.0 mm
12:24 23.6 °C 13.4 °C 1009.9 hPa NE 18.4 km/h 30.6 km/h 52.9% 0.0 mm
12:29 23.7 °C 13.8 °C 1009.9 hPa NE 16.9 km/h 29 km/h 54% 0.0 mm
12:34 23.9 °C 13.7 °C 1009.9 hPa NE 14 km/h 27.8 km/h 52.8% 0.0 mm
12:39 24.2 °C 13.6 °C 1009.7 hPa ENE 13.7 km/h 30.9 km/h 51.6% 0.0 mm
12:44 24.3 °C 13.5 °C 1009.7 hPa NE 13 km/h 32.2 km/h 51% 0.0 mm
12:49 24.2 °C 13.2 °C 1009.7 hPa NE 14.5 km/h 32.2 km/h 50.3% 0.0 mm
12:54 24.2 °C 12.9 °C 1009.6 hPa NE 18 km/h 33.3 km/h 49.6% 0.0 mm
12:59 24.2 °C 13.1 °C 1009.6 hPa NE 18.7 km/h 38.9 km/h 50.2% 0.0 mm
13:04 24.2 °C 13.1 °C 1009.6 hPa ENE 19.8 km/h 38.6 km/h 50.1% 0.0 mm
13:09 24.2 °C 13.4 °C 1009.6 hPa NE 19.2 km/h 33.8 km/h 51.2% 0.0 mm
13:14 24.3 °C 13.1 °C 1009.6 hPa NE 18 km/h 33.8 km/h 49.6% 0.0 mm
13:19 24.3 °C 13.2 °C 1009.6 hPa NE 18.4 km/h 37 km/h 50% 0.0 mm
13:24 24.2 °C 13.1 °C 1009.5 hPa NE 19 km/h 37 km/h 49.9% 0.0 mm
13:29 24.3 °C 12.8 °C 1009.5 hPa NE 19.3 km/h 33.8 km/h 48.9% 0.0 mm
13:34 24.2 °C 12.9 °C 1009.5 hPa NE 19.8 km/h 40.7 km/h 49.2% 0.0 mm
13:39 24.2 °C 13 °C 1009.3 hPa NE 20.5 km/h 40.2 km/h 49.9% 0.0 mm
13:44 24.2 °C 12.8 °C 1009.3 hPa NE 22.1 km/h 38.6 km/h 49.1% 0.0 mm
13:49 24.2 °C 13 °C 1009.3 hPa NNE 22.1 km/h 35.4 km/h 49.5% 0.0 mm
13:54 24.3 °C 12.9 °C 1009.2 hPa NE 22.1 km/h 33.8 km/h 49.2% 0.0 mm
13:59 24.3 °C 13.1 °C 1009.2 hPa NE 20.9 km/h 33.8 km/h 49.6% 0.0 mm
14:04 24.2 °C 13.4 °C 1009.2 hPa NE 19 km/h 34.3 km/h 51.1% 0.0 mm
14:09 24.3 °C 13.7 °C 1009.0 hPa ENE 18.8 km/h 33.8 km/h 51.7% 0.0 mm
14:14 24.3 °C 13.8 °C 1009.0 hPa ENE 18.4 km/h 32.2 km/h 51.7% 0.0 mm
14:19 24.4 °C 13.9 °C 1009.0 hPa ENE 18.2 km/h 34.3 km/h 51.9% 0.0 mm
14:24 24.6 °C 13.8 °C 1008.9 hPa ENE 18 km/h 33.8 km/h 51.1% 0.0 mm
14:29 24.6 °C 14 °C 1008.9 hPa Este 17.5 km/h 35.2 km/h 51.6% 0.0 mm
14:34 24.4 °C 14 °C 1008.9 hPa ENE 16.4 km/h 37.8 km/h 52.2% 0.0 mm
14:39 24.3 °C 13.7 °C 1008.8 hPa ENE 17.6 km/h 37 km/h 51.6% 0.0 mm
14:44 24.4 °C 13.8 °C 1008.8 hPa ENE 20.1 km/h 33.8 km/h 51.7% 0.0 mm
14:49 24.4 °C 13.6 °C 1008.8 hPa ENE 19 km/h 34.3 km/h 51% 0.0 mm
14:54 24.5 °C 13.7 °C 1008.5 hPa NE 16.4 km/h 33.8 km/h 51% 0.0 mm
14:59 24.6 °C 13.8 °C 1008.5 hPa ENE 16.1 km/h 31.7 km/h 51.1% 0.0 mm
15:04 24.4 °C 13.4 °C 1008.5 hPa ENE 15.6 km/h 34.3 km/h 50.3% 0.0 mm
15:09 24.4 °C 13.8 °C 1008.4 hPa ENE 16.5 km/h 33.8 km/h 51.4% 0.0 mm
15:14 24.6 °C 13.9 °C 1008.4 hPa NE 18.4 km/h 33.8 km/h 51.5% 0.0 mm
15:19 24.4 °C 13.6 °C 1008.4 hPa NE 17.5 km/h 31.7 km/h 50.7% 0.0 mm
15:24 24.4 °C 13.6 °C 1008.4 hPa ENE 15.6 km/h 32.2 km/h 50.8% 0.0 mm
15:29 24.6 °C 13.4 °C 1008.4 hPa ENE 16.4 km/h 33.3 km/h 49.7% 0.0 mm
15:34 24.6 °C 13.3 °C 1008.4 hPa ENE 18 km/h 33.8 km/h 49.6% 0.0 mm
15:39 24.7 °C 13.3 °C 1008.4 hPa ENE 18 km/h 37 km/h 49.1% 0.0 mm
15:44 24.7 °C 13.4 °C 1008.4 hPa ENE 18 km/h 37 km/h 49.5% 0.0 mm
15:49 24.7 °C 13.6 °C 1008.4 hPa ENE 17.2 km/h 30.6 km/h 50% 0.0 mm
15:54 24.6 °C 13.6 °C 1008.3 hPa Este 15.6 km/h 31.7 km/h 50.4% 0.0 mm
15:59 24.4 °C 13.7 °C 1008.3 hPa ENE 16.5 km/h 32.2 km/h 51.2% 0.0 mm
16:04 24.6 °C 14 °C 1008.3 hPa NE 18 km/h 37 km/h 51.7% 0.0 mm
16:09 24.7 °C 14.1 °C 1008.0 hPa ENE 16.9 km/h 37 km/h 51.9% 0.0 mm
16:14 24.7 °C 13.9 °C 1008.0 hPa ENE 14.8 km/h 35.2 km/h 51.3% 0.0 mm
16:19 24.3 °C 13.8 °C 1008.0 hPa ENE 15.6 km/h 35.4 km/h 51.9% 0.0 mm
16:24 24.3 °C 13.9 °C 1008.0 hPa ENE 17.2 km/h 38.9 km/h 52% 0.0 mm
16:29 24.1 °C 13.9 °C 1008.0 hPa ENE 17.8 km/h 38.9 km/h 53% 0.0 mm
16:34 24 °C 13.8 °C 1008.0 hPa Este 19 km/h 39.6 km/h 53% 0.0 mm
16:39 24 °C 13.7 °C 1008.0 hPa ENE 19.4 km/h 40.2 km/h 52.6% 0.0 mm
16:44 24.1 °C 13.8 °C 1008.0 hPa ENE 20.1 km/h 37 km/h 52.7% 0.0 mm
16:49 24.1 °C 13.8 °C 1008.0 hPa Este 20 km/h 38.9 km/h 52.6% 0.0 mm
16:54 24.1 °C 13.7 °C 1007.8 hPa ENE 19.8 km/h 38.6 km/h 52.3% 0.0 mm
16:59 24.2 °C 13.6 °C 1007.8 hPa Este 19.2 km/h 35.4 km/h 51.9% 0.0 mm
17:04 24.2 °C 13.5 °C 1007.8 hPa ENE 18 km/h 35.4 km/h 51.4% 0.0 mm
17:09 24.2 °C 13.4 °C 1007.7 hPa ENE 17.8 km/h 35.4 km/h 51% 0.0 mm
17:14 24.2 °C 13.5 °C 1007.7 hPa ENE 17.2 km/h 29.6 km/h 51% 0.0 mm
17:19 24.2 °C 13.2 °C 1007.7 hPa ENE 17.6 km/h 33.3 km/h 50.4% 0.0 mm
17:24 24.2 °C 13.3 °C 1007.7 hPa ENE 18.4 km/h 33.8 km/h 50.7% 0.0 mm
17:29 24.3 °C 13.2 °C 1007.7 hPa NE 17.7 km/h 35.2 km/h 50% 0.0 mm
17:34 24.1 °C 13.3 °C 1007.7 hPa ENE 16.4 km/h 35.4 km/h 50.9% 0.0 mm
17:39 24.2 °C 13.2 °C 1007.6 hPa NE 17.1 km/h 37.8 km/h 50.4% 0.0 mm
17:44 24.1 °C 13.3 °C 1007.6 hPa NE 18.4 km/h 37 km/h 51% 0.0 mm
17:49 24.2 °C 13.2 °C 1007.6 hPa NE 17.6 km/h 30.6 km/h 50.5% 0.0 mm
17:54 24.1 °C 13.3 °C 1007.6 hPa ENE 16.1 km/h 30.6 km/h 50.8% 0.0 mm
17:59 24.3 °C 13.4 °C 1007.6 hPa ENE 15.3 km/h 35.2 km/h 50.6% 0.0 mm
18:04 24.2 °C 13.5 °C 1007.6 hPa NE 14 km/h 35.4 km/h 51% 0.0 mm
18:09 24.2 °C 13.5 °C 1007.5 hPa NE 15.3 km/h 32.2 km/h 51.4% 0.0 mm
18:14 24.3 °C 13.5 °C 1007.5 hPa ENE 18 km/h 29.6 km/h 51% 0.0 mm
18:19 24.2 °C 13.5 °C 1007.5 hPa NE 17 km/h 35.2 km/h 51.4% 0.0 mm
18:24 24 °C 13.4 °C 1007.4 hPa NE 14.8 km/h 35.4 km/h 51.6% 0.0 mm
18:29 24.1 °C 13.5 °C 1007.4 hPa NE 15.6 km/h 33.8 km/h 51.7% 0.0 mm
18:34 24.1 °C 13.5 °C 1007.6 hPa NE 17.2 km/h 30.6 km/h 51.9% 0.0 mm
18:39 24.1 °C 13.6 °C 1007.6 hPa NE 16.7 km/h 31.5 km/h 52% 0.0 mm
18:44 23.9 °C 13.6 °C 1007.6 hPa ENE 15.6 km/h 32.2 km/h 52.6% 0.0 mm
18:49 24 °C 13.9 °C 1007.6 hPa Este 15.1 km/h 25.9 km/h 53% 0.0 mm
18:54 24.1 °C 13.9 °C 1007.5 hPa NE 14 km/h 29.6 km/h 53% 0.0 mm
18:59 23.8 °C 13.9 °C 1007.5 hPa NE 14.8 km/h 29.6 km/h 53.9% 0.0 mm
19:04 23.8 °C 14 °C 1007.5 hPa ENE 16.4 km/h 28.2 km/h 54% 0.0 mm
19:09 23.8 °C 14 °C 1007.4 hPa ENE 15.6 km/h 27.8 km/h 54% 0.0 mm
19:14 23.9 °C 13.8 °C 1007.4 hPa ENE 14 km/h 29.6 km/h 53.2% 0.0 mm
19:19 23.8 °C 13.6 °C 1007.4 hPa ENE 14 km/h 29.6 km/h 53% 0.0 mm
19:24 23.7 °C 13.6 °C 1007.3 hPa Este 14 km/h 32.8 km/h 53% 0.0 mm
19:29 23.7 °C 13.5 °C 1007.3 hPa ENE 14.7 km/h 33.8 km/h 53% 0.0 mm
19:34 23.7 °C 13.6 °C 1007.3 hPa NE 16.1 km/h 24.1 km/h 53% 0.0 mm
19:39 23.8 °C 13.3 °C 1007.3 hPa ENE 14.7 km/h 24.1 km/h 52% 0.0 mm
19:44 23.7 °C 13.2 °C 1007.3 hPa Este 11.9 km/h 29.8 km/h 52% 0.0 mm
19:49 23.6 °C 13.1 °C 1007.4 hPa Este 13.3 km/h 30.6 km/h 52% 0.0 mm
19:54 23.5 °C 13.2 °C 1007.4 hPa ENE 16.1 km/h 29 km/h 52.3% 0.0 mm
19:59 23.6 °C 13.2 °C 1007.4 hPa ENE 14.3 km/h 25.7 km/h 52.2% 0.0 mm
20:04 23.6 °C 13.2 °C 1007.6 hPa Este 11.1 km/h 27.8 km/h 51.9% 0.0 mm
20:09 23.5 °C 13.2 °C 1007.6 hPa NE 11.7 km/h 27.4 km/h 52.2% 0.0 mm
20:14 23.4 °C 13.1 °C 1007.6 hPa NE 13 km/h 25.7 km/h 52.4% 0.0 mm
20:19 23.4 °C 13.3 °C 1007.6 hPa NE 12.7 km/h 24.1 km/h 53% 0.0 mm
20:24 23.3 °C 13.3 °C 1007.5 hPa NE 11.9 km/h 22.5 km/h 53.4% 0.0 mm
20:29 23.2 °C 13.4 °C 1007.5 hPa NE 11.9 km/h 22.5 km/h 53.8% 0.0 mm
20:34 23.2 °C 13.4 °C 1007.5 hPa ENE 11.9 km/h 22.5 km/h 54% 0.0 mm
20:39 23 °C 13.5 °C 1007.5 hPa NE 12.3 km/h 24.1 km/h 55% 0.0 mm
20:44 22.8 °C 13.6 °C 1007.5 hPa ENE 13 km/h 24.1 km/h 56% 0.0 mm
20:49 22.7 °C 13.7 °C 1007.6 hPa ENE 12.4 km/h 22.5 km/h 56.9% 0.0 mm
20:50 22.7 °C 13.7 °C 1007.6 hPa ENE 11.3 km/h 20.9 km/h 57% 0.0 mm
20:59 22.4 °C 14 °C 1007.6 hPa ENE 10.8 km/h 22.5 km/h 58.7% 0.0 mm
21:04 22.3 °C 13.9 °C 1007.6 hPa Este 10.3 km/h 18.5 km/h 59% 0.0 mm
21:09 22.2 °C 14 °C 1007.5 hPa Este 10.2 km/h 19.3 km/h 59.8% 0.0 mm
21:14 22.1 °C 14 °C 1007.5 hPa ENE 10 km/h 19.3 km/h 60.4% 0.0 mm
21:19 21.9 °C 14.1 °C 1007.5 hPa NE 9.6 km/h 16.7 km/h 61% 0.0 mm
21:24 21.8 °C 14.1 °C 1007.4 hPa ENE 8.7 km/h 16.1 km/h 61.2% 0.0 mm
21:29 21.8 °C 14.2 °C 1007.4 hPa Este 8.6 km/h 17.2 km/h 62% 0.0 mm
21:34 21.7 °C 14.1 °C 1007.9 hPa Este 8.4 km/h 17.7 km/h 62% 0.0 mm
21:39 21.6 °C 14.2 °C 1007.9 hPa Este 8.4 km/h 16.1 km/h 62.9% 0.0 mm
21:44 21.4 °C 14.1 °C 1007.9 hPa ESE 8.4 km/h 14.8 km/h 63% 0.0 mm
21:49 21.5 °C 14.2 °C 1008.5 hPa SE 8.4 km/h 13 km/h 63.2% 0.0 mm
21:54 21.6 °C 14.3 °C 1008.5 hPa SE 8.4 km/h 14.8 km/h 63% 0.0 mm
21:59 21.5 °C 14.2 °C 1008.5 hPa SE 8.4 km/h 14.5 km/h 63.1% 0.0 mm
22:04 21.4 °C 14.3 °C 1008.8 hPa SE 8.4 km/h 16.7 km/h 64% 0.0 mm
22:09 21.3 °C 14.3 °C 1008.8 hPa ESE 8.9 km/h 16.7 km/h 64% 0.0 mm
22:14 21.3 °C 14.2 °C 1008.8 hPa SE 10 km/h 16.1 km/h 64% 0.0 mm
22:19 21.3 °C 14 °C 1009.1 hPa ESE 9.6 km/h 13.7 km/h 63.3% 0.0 mm
22:24 21.3 °C 14.2 °C 1009.1 hPa SE 8.7 km/h 14.5 km/h 64% 0.0 mm
22:44 21.1 °C 14 °C 1009.3 hPa Este 6.4 km/h 11.1 km/h 64% 0.0 mm
22:49 21.1 °C 14 °C 1009.3 hPa ESE 6.5 km/h 11.3 km/h 64% 0.0 mm
22:54 21.1 °C 14 °C 1009.3 hPa ESE 6.5 km/h 10 km/h 64% 0.0 mm
22:59 21.2 °C 14.1 °C 1009.3 hPa ESE 6.9 km/h 11.1 km/h 64% 0.0 mm
23:04 21.2 °C 14 °C 1009.3 hPa SE 6.9 km/h 11.3 km/h 63.4% 0.0 mm
23:09 21.3 °C 13.9 °C 1009.2 hPa ESE 6.2 km/h 9.7 km/h 63% 0.0 mm
23:14 21.3 °C 13.9 °C 1009.2 hPa Este 4.7 km/h 8.4 km/h 63% 0.0 mm
23:19 21.2 °C 14 °C 1009.2 hPa Este 4.4 km/h 8.4 km/h 63.6% 0.0 mm
23:24 21.1 °C 14 °C 1009.1 hPa Este 3.9 km/h 8 km/h 64% 0.0 mm
23:29 21 °C 13.9 °C 1009.1 hPa ENE 3.6 km/h 8 km/h 64% 0.0 mm
23:34 20.9 °C 13.9 °C 1009.1 hPa NNE 3.2 km/h 5.6 km/h 64% 0.0 mm
23:39 21 °C 13.9 °C 1009.1 hPa NO 3.1 km/h 5.8 km/h 64% 0.0 mm
23:44 21 °C 13.9 °C 1009.1 hPa NNO 2.9 km/h 6.4 km/h 64% 0.0 mm
23:49 20.9 °C 13.9 °C 1009.1 hPa NNO 2.7 km/h 4.8 km/h 64.3% 0.0 mm
23:54 20.9 °C 14 °C 1009.1 hPa NNO 2.2 km/h   64.9% 0.0 mm
23:59 20.8 °C 14 °C 1009.1 hPa NNO 1.4 km/h   65% 0.0 mm
Murcia-Puente Tocinos, España
Compliments of Weather Underground - 3 mb

La estación de MeteoMurcia.com, publica sus datos en los siguientes proyectos:

Weather Underground PWS IMURCIAP2 Meteoclimatic www.awekas.at

W3Counter
Web Analytics